createdAt,value
2023-04-16T00:00:14.240Z,5.60
2023-04-16T00:02:42.430Z,6.07
2023-04-16T00:05:10.775Z,6.00
2023-04-16T00:07:39.356Z,6.03
2023-04-16T00:10:08.762Z,6.13
2023-04-16T00:12:38.120Z,6.80
2023-04-16T00:15:06.626Z,6.20
2023-04-16T00:17:34.606Z,6.17
2023-04-16T00:20:02.735Z,6.33
2023-04-16T00:22:30.813Z,7.00
2023-04-16T00:24:58.803Z,6.77
2023-04-16T00:27:28.047Z,5.87
2023-04-16T00:29:57.354Z,5.97
2023-04-16T00:32:25.422Z,5.77
2023-04-16T00:34:53.394Z,5.47
2023-04-16T00:37:21.485Z,6.40
2023-04-16T00:39:49.531Z,6.57
2023-04-16T00:42:20.329Z,6.33
2023-04-16T00:44:48.377Z,6.10
2023-04-16T00:47:18.003Z,5.70
2023-04-16T00:49:46.478Z,5.33
2023-04-16T00:52:14.465Z,6.00
2023-04-16T00:54:42.630Z,6.17
2023-04-16T00:57:11.519Z,7.53
2023-04-16T00:59:39.568Z,8.90
2023-04-16T01:02:08.309Z,7.90
2023-04-16T01:04:37.930Z,7.50
2023-04-16T01:07:05.888Z,6.43
2023-04-16T01:09:35.611Z,6.73
2023-04-16T01:12:04.373Z,5.97
2023-04-16T01:14:36.253Z,5.57
2023-04-16T01:17:04.482Z,6.47
2023-04-16T01:19:32.588Z,5.70
2023-04-16T01:22:08.246Z,6.03
2023-04-16T01:24:36.589Z,6.20
2023-04-16T01:27:04.771Z,5.80
2023-04-16T01:29:32.816Z,6.03
2023-04-16T01:32:00.890Z,6.47
2023-04-16T01:34:30.586Z,6.20
2023-04-16T01:36:58.807Z,6.07
2023-04-16T01:39:28.445Z,6.83
2023-04-16T01:41:57.118Z,5.97
2023-04-16T01:44:25.589Z,5.73
2023-04-16T01:46:53.740Z,6.57
2023-04-16T01:49:25.015Z,6.90
2023-04-16T01:51:53.054Z,6.40
2023-04-16T01:54:21.058Z,5.97
2023-04-16T01:56:50.630Z,6.20
2023-04-16T01:59:18.748Z,6.60
2023-04-16T02:01:47.048Z,6.50
2023-04-16T02:04:18.236Z,7.00
2023-04-16T02:06:46.472Z,6.53
2023-04-16T02:09:14.621Z,6.53
2023-04-16T02:11:42.658Z,6.70
2023-04-16T02:14:14.480Z,5.90
2023-04-16T02:16:45.763Z,5.50
2023-04-16T02:19:13.954Z,6.10
2023-04-16T02:21:42.124Z,5.70
2023-04-16T02:24:10.105Z,7.03
2023-04-16T02:26:38.242Z,52.03
2023-04-16T02:29:06.329Z,7.83
2023-04-16T02:31:35.942Z,7.17
2023-04-16T02:34:04.244Z,7.43
2023-04-16T02:36:32.778Z,7.37
2023-04-16T02:39:01.115Z,7.67
2023-04-16T02:41:29.120Z,7.30
2023-04-16T02:43:57.301Z,9.90
2023-04-16T02:46:25.349Z,8.93
2023-04-16T02:48:54.871Z,12.37
2023-04-16T02:51:22.847Z,8.50
2023-04-16T02:53:50.853Z,8.40
2023-04-16T02:56:19.043Z,9.40
2023-04-16T02:58:47.056Z,8.47
2023-04-16T03:01:15.339Z,9.27
2023-04-16T03:03:43.502Z,8.00
2023-04-16T03:06:12.938Z,8.07
2023-04-16T03:08:44.106Z,7.53
2023-04-16T03:11:14.686Z,7.67
2023-04-16T03:13:42.681Z,8.50
2023-04-16T03:16:10.850Z,7.80
2023-04-16T03:18:38.895Z,8.60
2023-04-16T03:21:10.169Z,7.17
2023-04-16T03:23:39.610Z,7.30
2023-04-16T03:26:07.675Z,7.17
2023-04-16T03:28:35.820Z,7.30
2023-04-16T03:31:03.924Z,7.70
2023-04-16T03:33:32.035Z,8.10
2023-04-16T03:36:00.192Z,9.47
2023-04-16T03:38:28.193Z,8.23
2023-04-16T03:40:58.664Z,9.07
2023-04-16T03:43:26.778Z,8.00
2023-04-16T03:45:57.168Z,10.00
2023-04-16T03:48:25.492Z,9.47
2023-04-16T03:50:53.529Z,10.00
2023-04-16T03:53:25.925Z,10.13
2023-04-16T03:55:54.086Z,9.93
2023-04-16T03:58:23.541Z,10.27
2023-04-16T04:00:53.763Z,10.70
2023-04-16T04:03:22.026Z,10.40
2023-04-16T04:05:51.274Z,10.17
2023-04-16T04:08:19.375Z,10.40
2023-04-16T04:10:47.411Z,11.20
2023-04-16T04:13:16.551Z,11.07
2023-04-16T04:15:46.837Z,11.00
2023-04-16T04:18:14.928Z,10.67
2023-04-16T04:20:43.002Z,11.50
2023-04-16T04:23:11.076Z,10.80
2023-04-16T04:25:39.230Z,9.53
2023-04-16T04:28:07.351Z,10.00
2023-04-16T04:30:35.921Z,11.57
2023-04-16T04:33:05.527Z,9.40
2023-04-16T04:35:33.866Z,9.10
2023-04-16T04:38:02.813Z,11.30
2023-04-16T04:40:30.961Z,9.17
2023-04-16T04:42:59.053Z,9.83
2023-04-16T04:45:28.453Z,9.10
2023-04-16T04:47:57.765Z,10.13
2023-04-16T04:50:27.487Z,9.40
2023-04-16T04:52:55.658Z,9.70
2023-04-16T04:55:23.779Z,11.63
2023-04-16T04:57:51.873Z,13.53
2023-04-16T05:00:20.129Z,13.00
2023-04-16T05:02:48.499Z,12.67
2023-04-16T05:05:16.807Z,12.23
2023-04-16T05:07:46.405Z,13.43
2023-04-16T05:10:14.435Z,11.47
2023-04-16T05:12:42.574Z,13.17
2023-04-16T05:15:11.404Z,12.80
2023-04-16T05:17:39.573Z,13.27
2023-04-16T05:20:09.338Z,12.33
2023-04-16T05:22:37.591Z,13.27
2023-04-16T05:25:08.792Z,14.13
2023-04-16T05:27:36.987Z,13.07
2023-04-16T05:30:05.368Z,12.60
2023-04-16T05:32:33.580Z,12.93
2023-04-16T05:35:01.732Z,13.63
2023-04-16T05:37:29.739Z,14.23
2023-04-16T05:39:57.776Z,13.70
2023-04-16T05:42:27.211Z,12.93
2023-04-16T05:44:57.431Z,15.73
2023-04-16T05:47:25.639Z,13.63
2023-04-16T05:49:53.835Z,14.60
2023-04-16T05:52:21.880Z,13.67
2023-04-16T05:54:49.889Z,14.73
2023-04-16T05:57:17.925Z,15.60
2023-04-16T05:59:47.420Z,14.27
2023-04-16T06:02:17.626Z,17.00
2023-04-16T06:04:49.872Z,14.03
2023-04-16T06:07:17.904Z,15.73
2023-04-16T06:09:46.623Z,18.53
2023-04-16T06:12:19.025Z,15.60
2023-04-16T06:14:48.423Z,18.70
2023-04-16T06:17:16.617Z,19.70
2023-04-16T06:19:44.667Z,15.90
2023-04-16T06:22:12.959Z,15.80
2023-04-16T06:24:41.104Z,15.03
2023-04-16T06:27:09.329Z,16.63
2023-04-16T06:29:41.570Z,15.20
2023-04-16T06:32:11.680Z,14.50
2023-04-16T06:34:39.981Z,13.17
2023-04-16T06:37:10.802Z,11.70
2023-04-16T06:39:38.970Z,11.13
2023-04-16T06:42:07.052Z,12.57
2023-04-16T06:44:36.312Z,11.60
2023-04-16T06:47:04.492Z,10.27
2023-04-16T06:49:33.998Z,9.70
2023-04-16T06:52:05.701Z,10.10
2023-04-16T06:54:34.013Z,14.03
2023-04-16T06:57:05.116Z,11.30
2023-04-16T06:59:33.168Z,9.77
2023-04-16T07:02:03.435Z,11.20
2023-04-16T07:04:32.933Z,10.70
2023-04-16T07:07:00.979Z,10.00
2023-04-16T07:09:32.228Z,8.67
2023-04-16T07:12:00.312Z,9.67
2023-04-16T07:14:28.256Z,8.73
2023-04-16T07:16:56.389Z,8.97
2023-04-16T07:19:24.606Z,8.30
2023-04-16T07:21:53.974Z,7.43
2023-04-16T07:24:22.085Z,7.50
2023-04-16T07:26:50.067Z,6.63
2023-04-16T07:29:18.174Z,7.27
2023-04-16T07:31:46.704Z,7.00
2023-04-16T07:34:14.801Z,6.13
2023-04-16T07:36:42.777Z,5.70
2023-04-16T07:39:13.124Z,5.63
2023-04-16T07:41:41.524Z,7.73
2023-04-16T07:44:10.243Z,7.80
2023-04-16T07:46:46.415Z,8.73
2023-04-16T07:49:15.757Z,8.13
2023-04-16T07:51:44.041Z,7.87
2023-04-16T07:54:13.494Z,7.53
2023-04-16T07:56:41.615Z,6.30
2023-04-16T07:59:22.090Z,6.80
2023-04-16T08:01:53.386Z,7.07
2023-04-16T08:04:25.036Z,7.60
2023-04-16T08:06:53.849Z,8.10
2023-04-16T08:09:24.182Z,8.03
2023-04-16T08:11:52.170Z,7.83
2023-04-16T08:14:20.308Z,7.90
2023-04-16T08:16:48.283Z,9.60
2023-04-16T08:19:16.326Z,8.53
2023-04-16T08:21:44.390Z,8.17
2023-04-16T08:24:12.570Z,8.30
2023-04-16T08:26:41.877Z,7.37
2023-04-16T08:29:10.089Z,6.50
2023-04-16T08:31:38.592Z,7.60
2023-04-16T08:34:06.744Z,12.93
2023-04-16T08:36:34.681Z,8.30
2023-04-16T08:39:02.748Z,6.93
2023-04-16T08:41:33.906Z,17.33
2023-04-16T08:44:08.906Z,8.47
2023-04-16T08:46:38.827Z,11.90
2023-04-16T08:49:08.755Z,7.30
2023-04-16T08:51:36.889Z,11.90
2023-04-16T08:54:07.635Z,8.70
2023-04-16T08:56:38.274Z,8.70
2023-04-16T08:59:08.255Z,11.93
2023-04-16T09:01:38.405Z,10.17
2023-04-16T09:04:08.273Z,10.90
2023-04-16T09:06:38.139Z,6.97
2023-04-16T09:09:08.247Z,6.50
2023-04-16T09:11:36.840Z,6.83
2023-04-16T09:14:05.626Z,5.90
2023-04-16T09:16:35.915Z,6.23
2023-04-16T09:19:03.942Z,6.90
2023-04-16T09:21:32.132Z,5.97
2023-04-16T09:24:01.247Z,5.80
2023-04-16T09:26:29.430Z,5.80
2023-04-16T09:28:57.794Z,6.33
2023-04-16T09:31:25.848Z,6.07
2023-04-16T09:34:05.327Z,6.70
2023-04-16T09:36:33.591Z,5.67
2023-04-16T09:39:02.298Z,5.30
2023-04-16T09:41:31.855Z,5.20
2023-04-16T09:44:01.875Z,6.20
2023-04-16T09:46:32.452Z,4.77
2023-04-16T09:49:09.524Z,5.60
2023-04-16T09:51:43.246Z,10.30
2023-04-16T09:54:11.377Z,4.53
2023-04-16T09:56:42.383Z,4.60
2023-04-16T09:59:17.619Z,4.27
2023-04-16T10:01:46.997Z,5.57
2023-04-16T10:04:17.000Z,4.03
2023-04-16T10:06:48.419Z,4.23
2023-04-16T10:09:16.504Z,3.40
2023-04-16T10:11:45.962Z,6.30
2023-04-16T10:14:13.925Z,4.17
2023-04-16T10:16:42.012Z,3.40
2023-04-16T10:19:10.349Z,5.13
2023-04-16T10:21:41.191Z,3.83
2023-04-16T10:24:10.776Z,4.53
2023-04-16T10:26:40.068Z,4.43
2023-04-16T10:29:08.431Z,3.73
2023-04-16T10:31:37.888Z,4.77
2023-04-16T10:34:06.572Z,7.13
2023-04-16T10:36:40.008Z,12.83
2023-04-16T10:39:14.099Z,8.33
2023-04-16T10:41:44.093Z,5.40
2023-04-16T10:44:12.846Z,7.70
2023-04-16T10:46:42.284Z,4.40
2023-04-16T10:49:19.192Z,3.93
2023-04-16T10:51:59.090Z,3.80
2023-04-16T10:54:29.250Z,3.33
2023-04-16T10:56:58.509Z,3.80
2023-04-16T10:59:31.210Z,3.37
2023-04-16T11:02:01.650Z,3.03
2023-04-16T11:04:37.491Z,3.07
2023-04-16T11:07:13.891Z,3.20
2023-04-16T11:09:57.512Z,3.40
2023-04-16T11:12:27.838Z,2.83
2023-04-16T11:14:59.943Z,2.90
2023-04-16T11:17:31.943Z,3.17
2023-04-16T11:20:00.223Z,3.37
2023-04-16T11:22:29.764Z,2.93
2023-04-16T11:24:58.313Z,3.30
2023-04-16T11:27:27.407Z,2.70
2023-04-16T11:30:00.006Z,2.83
2023-04-16T11:32:28.112Z,2.73
2023-04-16T11:34:56.327Z,3.10
2023-04-16T11:37:35.246Z,3.43
2023-04-16T11:40:06.746Z,2.93
2023-04-16T11:42:37.218Z,2.90
2023-04-16T11:45:06.124Z,2.60
2023-04-16T11:47:43.057Z,3.13
2023-04-16T11:50:21.970Z,2.67
2023-04-16T11:52:52.934Z,3.00
2023-04-16T11:55:21.548Z,3.70
2023-04-16T11:57:50.882Z,2.20
2023-04-16T12:00:22.224Z,2.37
2023-04-16T12:02:54.409Z,2.60
2023-04-16T12:05:31.035Z,2.73
2023-04-16T12:08:01.742Z,2.20
2023-04-16T12:10:30.597Z,3.10
2023-04-16T12:13:11.751Z,2.63
2023-04-16T12:15:47.682Z,2.83
2023-04-16T12:18:16.057Z,2.63
2023-04-16T12:20:45.360Z,2.50
2023-04-16T12:23:25.599Z,2.50
2023-04-16T12:25:53.809Z,2.50
2023-04-16T12:28:30.309Z,2.60
2023-04-16T12:30:58.557Z,2.63
2023-04-16T12:33:26.895Z,2.37
2023-04-16T12:35:54.967Z,2.60
2023-04-16T12:38:25.529Z,2.20
2023-04-16T12:40:56.693Z,2.13
2023-04-16T12:43:25.551Z,2.10
2023-04-16T12:45:53.671Z,2.30
2023-04-16T12:48:21.633Z,2.37
2023-04-16T12:50:49.585Z,2.43
2023-04-16T12:53:17.725Z,2.10
2023-04-16T12:55:47.272Z,2.20
2023-04-16T12:58:15.323Z,3.07
2023-04-16T13:00:43.420Z,2.13
2023-04-16T13:03:11.617Z,2.27
2023-04-16T13:05:39.759Z,2.20
2023-04-16T13:08:08.196Z,2.30
2023-04-16T13:10:36.537Z,2.30
2023-04-16T13:13:06.351Z,2.07
2023-04-16T13:15:34.654Z,2.27
2023-04-16T13:18:02.645Z,1.90
2023-04-16T13:20:30.632Z,2.00
2023-04-16T13:22:58.625Z,1.97
2023-04-16T13:25:26.597Z,2.03
2023-04-16T13:27:54.555Z,2.33
2023-04-16T13:30:23.938Z,2.30
2023-04-16T13:32:51.904Z,2.20
2023-04-16T13:35:19.973Z,2.30
2023-04-16T13:37:47.930Z,2.07
2023-04-16T13:40:15.951Z,2.30
2023-04-16T13:42:43.932Z,2.50
2023-04-16T13:45:12.029Z,3.10
2023-04-16T13:47:42.583Z,2.90
2023-04-16T13:50:11.428Z,4.97
2023-04-16T13:52:39.440Z,4.87
2023-04-16T13:55:09.449Z,5.87
2023-04-16T13:57:37.468Z,6.80
2023-04-16T14:00:06.472Z,4.47
2023-04-16T14:02:34.552Z,5.00
2023-04-16T14:05:04.130Z,5.13
2023-04-16T14:07:32.597Z,4.40
2023-04-16T14:10:00.547Z,4.17
2023-04-16T14:12:28.676Z,6.97
2023-04-16T14:14:57.188Z,4.20
2023-04-16T14:17:25.364Z,3.73
2023-04-16T14:19:53.345Z,3.03
2023-04-16T14:22:22.779Z,3.50
2023-04-16T14:24:50.838Z,2.97
2023-04-16T14:27:18.814Z,3.43
2023-04-16T14:29:47.388Z,3.27
2023-04-16T14:32:15.699Z,3.13
2023-04-16T14:34:43.636Z,3.37
2023-04-16T14:37:11.664Z,2.90
2023-04-16T14:39:41.119Z,3.10
2023-04-16T14:42:09.051Z,3.10
2023-04-16T14:44:37.008Z,2.90
2023-04-16T14:47:05.100Z,3.33
2023-04-16T14:49:34.372Z,3.13
2023-04-16T14:52:05.164Z,4.50
2023-04-16T14:54:33.721Z,3.87
2023-04-16T14:57:03.422Z,4.77
2023-04-16T14:59:31.498Z,3.60
2023-04-16T15:02:00.234Z,3.40
2023-04-16T15:04:28.470Z,3.20
2023-04-16T15:06:58.930Z,2.80
2023-04-16T15:09:27.719Z,3.00
2023-04-16T15:11:56.889Z,3.53
2023-04-16T15:14:26.276Z,4.03
2023-04-16T15:16:54.909Z,4.90
2023-04-16T15:19:23.090Z,3.13
2023-04-16T15:21:51.598Z,3.27
2023-04-16T15:24:19.745Z,2.80
2023-04-16T15:26:47.788Z,2.70
2023-04-16T15:29:15.761Z,2.33
2023-04-16T15:31:45.308Z,2.03
2023-04-16T15:34:13.844Z,2.60
2023-04-16T15:36:42.642Z,5.83
2023-04-16T15:39:10.795Z,3.00
2023-04-16T15:41:47.194Z,3.10
2023-04-16T15:44:27.574Z,3.07
2023-04-16T15:46:56.940Z,3.20
2023-04-16T15:49:25.393Z,3.00
2023-04-16T15:51:53.542Z,3.17
2023-04-16T15:54:21.663Z,3.10
2023-04-16T15:56:49.694Z,3.63
2023-04-16T15:59:17.851Z,3.60
2023-04-16T16:01:45.922Z,3.90
2023-04-16T16:04:15.321Z,3.23
2023-04-16T16:06:43.583Z,3.40
2023-04-16T16:09:12.075Z,4.00
2023-04-16T16:11:40.134Z,4.00
2023-04-16T16:14:08.099Z,3.87
2023-04-16T16:16:36.343Z,4.37
2023-04-16T16:19:04.452Z,3.40
2023-04-16T16:21:33.929Z,4.10
2023-04-16T16:24:01.924Z,3.77
2023-04-16T16:26:29.898Z,4.10
2023-04-16T16:28:58.069Z,4.40
2023-04-16T16:31:26.081Z,3.73
2023-04-16T16:33:54.100Z,4.30
2023-04-16T16:36:22.538Z,4.20
2023-04-16T16:38:51.902Z,4.23
2023-04-16T16:41:19.891Z,4.07
2023-04-16T16:43:48.046Z,3.50
2023-04-16T16:46:16.214Z,3.20
2023-04-16T16:48:44.243Z,3.20
2023-04-16T16:51:12.370Z,3.73
2023-04-16T16:53:41.673Z,3.53
2023-04-16T16:56:11.102Z,3.20
2023-04-16T16:58:39.149Z,4.40
2023-04-16T17:01:07.190Z,4.13
2023-04-16T17:03:35.914Z,4.30
2023-04-16T17:06:04.151Z,4.43
2023-04-16T17:08:32.425Z,4.90
2023-04-16T17:11:03.434Z,5.20
2023-04-16T17:13:33.553Z,4.10
2023-04-16T17:16:01.788Z,4.90
2023-04-16T17:18:29.995Z,6.40
2023-04-16T17:20:58.653Z,4.23
2023-04-16T17:23:26.848Z,4.90
2023-04-16T17:25:55.068Z,4.23
2023-04-16T17:28:23.034Z,4.97
2023-04-16T17:30:54.156Z,4.50
2023-04-16T17:33:22.113Z,4.97
2023-04-16T17:35:50.130Z,5.20
2023-04-16T17:38:18.313Z,5.50
2023-04-16T17:40:46.320Z,5.40
2023-04-16T17:43:14.387Z,4.40
2023-04-16T17:45:42.491Z,4.57
2023-04-16T17:48:12.159Z,4.40
2023-04-16T17:50:40.225Z,4.20
2023-04-16T17:53:08.867Z,3.90
2023-04-16T17:55:36.929Z,3.73
2023-04-16T17:58:04.906Z,4.50
2023-04-16T18:00:33.389Z,4.80
2023-04-16T18:03:01.502Z,5.10
2023-04-16T18:05:31.699Z,8.70
2023-04-16T18:07:59.844Z,12.33
2023-04-16T18:10:31.417Z,4.80
2023-04-16T18:12:59.496Z,7.87
2023-04-16T18:15:27.902Z,15.00
2023-04-16T18:17:56.086Z,9.63
2023-04-16T18:20:24.256Z,9.67
2023-04-16T18:22:53.896Z,7.83
2023-04-16T18:25:32.311Z,5.77
2023-04-16T18:28:03.766Z,6.60
2023-04-16T18:30:32.050Z,5.40
2023-04-16T18:33:33.446Z,5.53
2023-04-16T18:35:48.972Z,5.90
2023-04-16T18:38:18.419Z,5.60
2023-04-16T18:40:46.973Z,6.03
2023-04-16T18:43:15.838Z,5.60
2023-04-16T18:45:43.791Z,5.40
2023-04-16T18:48:11.744Z,6.00
2023-04-16T18:50:39.703Z,6.87
2023-04-16T18:53:07.857Z,5.43
2023-04-16T18:55:37.662Z,5.90
2023-04-16T18:58:05.625Z,9.10
2023-04-16T19:00:33.636Z,8.03
2023-04-16T19:05:34.445Z,7.53
2023-04-16T19:08:02.500Z,6.60
2023-04-16T19:10:30.649Z,6.20
2023-04-16T19:13:00.101Z,5.40
2023-04-16T19:15:31.125Z,5.77
2023-04-16T19:18:00.161Z,6.20
2023-04-16T19:20:28.184Z,7.07
2023-04-16T19:22:56.114Z,9.17
2023-04-16T19:25:24.052Z,8.60
2023-04-16T19:27:52.203Z,5.30
2023-04-16T19:30:21.721Z,7.70
2023-04-16T19:32:49.951Z,7.07
2023-04-16T19:35:18.113Z,8.90
2023-04-16T19:37:46.080Z,7.00
2023-04-16T19:40:14.285Z,15.43
2023-04-16T19:42:45.101Z,6.63
2023-04-16T19:45:13.128Z,6.70
2023-04-16T19:47:43.158Z,7.30
2023-04-16T19:50:12.084Z,6.40
2023-04-16T19:52:40.029Z,7.30
2023-04-16T19:55:09.151Z,6.23
2023-04-16T19:57:37.145Z,6.27
2023-04-16T20:00:08.813Z,19.20
2023-04-16T20:02:36.877Z,9.27
2023-04-16T20:05:06.877Z,5.53
2023-04-16T20:07:34.937Z,8.10
2023-04-16T20:10:03.588Z,7.80
2023-04-16T20:12:32.060Z,7.70
2023-04-16T20:15:00.165Z,7.00
2023-04-16T20:17:28.210Z,5.60
2023-04-16T20:20:00.773Z,5.80
2023-04-16T20:22:30.203Z,10.27
2023-04-16T20:24:58.254Z,7.60
2023-04-16T20:27:26.479Z,7.00
2023-04-16T20:29:54.560Z,7.33
2023-04-16T20:32:22.748Z,6.60
2023-04-16T20:34:50.753Z,6.13
2023-04-16T20:37:18.800Z,6.37
2023-04-16T20:39:50.140Z,6.17
2023-04-16T20:42:21.902Z,5.93
2023-04-16T20:44:51.112Z,5.43
2023-04-16T20:47:19.730Z,6.30
2023-04-16T20:49:47.805Z,6.10
2023-04-16T20:52:15.978Z,6.00
2023-04-16T20:54:44.188Z,12.87
2023-04-16T20:57:13.513Z,8.13
2023-04-16T20:59:41.478Z,8.73
2023-04-16T21:02:09.552Z,7.80
2023-04-16T21:04:37.707Z,6.17
2023-04-16T21:07:05.895Z,6.30
2023-04-16T21:09:33.883Z,6.07
2023-04-16T21:12:01.970Z,6.67
2023-04-16T21:14:31.348Z,6.00
2023-04-16T21:16:59.326Z,6.90
2023-04-16T21:19:27.245Z,6.03
2023-04-16T21:21:55.220Z,6.43
2023-04-16T21:24:23.182Z,6.50
2023-04-16T21:26:51.164Z,6.37
2023-04-16T21:29:19.257Z,6.83
2023-04-16T21:31:48.917Z,6.53
2023-04-16T21:34:17.668Z,7.13
2023-04-16T21:36:46.142Z,6.40
2023-04-16T21:39:17.338Z,6.00
2023-04-16T21:41:45.323Z,5.77
2023-04-16T21:44:14.827Z,5.97
2023-04-16T21:46:42.837Z,6.47
2023-04-16T21:49:12.321Z,6.47
2023-04-16T21:51:42.943Z,6.03
2023-04-16T21:54:10.947Z,5.77
2023-04-16T21:56:39.006Z,5.87
2023-04-16T21:59:06.951Z,5.60
2023-04-16T22:01:35.199Z,6.33
2023-04-16T22:04:03.808Z,7.00
2023-04-16T22:06:33.170Z,6.23
2023-04-16T22:09:01.508Z,7.50
2023-04-16T22:11:29.461Z,7.10
2023-04-16T22:13:57.821Z,6.93
2023-04-16T22:16:26.622Z,6.20
2023-04-16T22:18:54.921Z,6.30
2023-04-16T22:21:22.915Z,6.90
2023-04-16T22:23:52.236Z,7.00
2023-04-16T22:26:20.875Z,6.40
2023-04-16T22:28:48.827Z,6.60
2023-04-16T22:31:16.866Z,7.50
2023-04-16T22:33:44.975Z,6.53
2023-04-16T22:36:12.969Z,6.80
2023-04-16T22:38:41.040Z,6.90
2023-04-16T22:41:10.553Z,6.67
2023-04-16T22:43:38.500Z,6.13
2023-04-16T22:46:07.954Z,6.20
2023-04-16T22:48:37.994Z,6.70
2023-04-16T22:51:08.304Z,6.50
2023-04-16T22:53:36.700Z,6.57
2023-04-16T22:56:04.760Z,7.13
2023-04-16T22:58:34.119Z,6.30
2023-04-16T23:01:02.188Z,6.13
2023-04-16T23:03:30.644Z,6.70
2023-04-16T23:05:58.705Z,6.37
2023-04-16T23:08:26.686Z,6.70
2023-04-16T23:10:54.665Z,7.20
2023-04-16T23:13:22.642Z,7.43
2023-04-16T23:15:52.403Z,7.33
2023-04-16T23:18:20.496Z,6.67
2023-04-16T23:20:51.839Z,6.30
2023-04-16T23:23:19.980Z,6.93
2023-04-16T23:25:48.142Z,8.13
2023-04-16T23:28:16.180Z,7.80
2023-04-16T23:30:44.130Z,7.60
2023-04-16T23:33:13.435Z,7.70
2023-04-16T23:35:41.342Z,7.23
2023-04-16T23:38:09.267Z,7.53
2023-04-16T23:40:37.240Z,7.30
2023-04-16T23:43:05.326Z,7.30
2023-04-16T23:45:33.303Z,6.93
2023-04-16T23:48:01.409Z,8.20
2023-04-16T23:50:31.073Z,8.03
2023-04-16T23:52:59.046Z,8.10
2023-04-16T23:55:27.010Z,7.00
2023-04-16T23:57:54.963Z,8.47
